sensor_id;sensor_type;location;lat;lon;timestamp;temperature;humidity
32865;DHT22;19219;44.500;11.188;2024-03-02T00:02:12;11.60;99.90
32865;DHT22;19219;44.500;11.188;2024-03-02T00:04:38;11.50;99.90
32865;DHT22;19219;44.500;11.188;2024-03-02T00:07:04;11.50;99.90
32865;DHT22;19219;44.500;11.188;2024-03-02T00:09:30;11.60;99.90
32865;DHT22;19219;44.500;11.188;2024-03-02T00:11:55;11.50;99.90
32865;DHT22;19219;44.500;11.188;2024-03-02T00:14:22;11.50;99.90
32865;DHT22;19219;44.500;11.188;2024-03-02T00:16:50;11.50;99.90
32865;DHT22;19219;44.500;11.188;2024-03-02T00:19:17;11.50;99.90
32865;DHT22;19219;44.500;11.188;2024-03-02T00:21:43;11.50;99.90
32865;DHT22;19219;44.500;11.188;2024-03-02T00:24:31;11.50;99.90
32865;DHT22;19219;44.500;11.188;2024-03-02T00:26:58;11.50;99.90
32865;DHT22;19219;44.500;11.188;2024-03-02T00:29:23;11.50;99.90
32865;DHT22;19219;44.500;11.188;2024-03-02T00:31:50;11.50;99.90
32865;DHT22;19219;44.500;11.188;2024-03-02T00:34:17;11.50;99.90
32865;DHT22;19219;44.500;11.188;2024-03-02T00:36:43;11.50;99.90
32865;DHT22;19219;44.500;11.188;2024-03-02T00:39:12;11.50;99.90
32865;DHT22;19219;44.500;11.188;2024-03-02T00:41:41;11.50;99.90
32865;DHT22;19219;44.500;11.188;2024-03-02T00:44:11;11.50;99.90
32865;DHT22;19219;44.500;11.188;2024-03-02T00:46:39;11.40;99.90
32865;DHT22;19219;44.500;11.188;2024-03-02T00:49:12;11.40;99.90
32865;DHT22;19219;44.500;11.188;2024-03-02T00:51:47;11.40;99.90
32865;DHT22;19219;44.500;11.188;2024-03-02T00:54:14;11.40;99.90
32865;DHT22;19219;44.500;11.188;2024-03-02T00:56:41;11.40;99.90
32865;DHT22;19219;44.500;11.188;2024-03-02T00:59:09;11.40;99.90
32865;DHT22;19219;44.500;11.188;2024-03-02T01:01:35;11.40;99.90
32865;DHT22;19219;44.500;11.188;2024-03-02T01:04:01;11.40;99.90
32865;DHT22;19219;44.500;11.188;2024-03-02T01:06:26;11.30;99.90
32865;DHT22;19219;44.500;11.188;2024-03-02T01:08:53;11.40;99.90
32865;DHT22;19219;44.500;11.188;2024-03-02T01:11:19;11.30;99.90
32865;DHT22;19219;44.500;11.188;2024-03-02T01:13:47;11.40;99.90
32865;DHT22;19219;44.500;11.188;2024-03-02T01:16:13;11.40;99.90
32865;DHT22;19219;44.500;11.188;2024-03-02T01:18:39;11.40;99.90
32865;DHT22;19219;44.500;11.188;2024-03-02T01:21:04;11.40;99.90
32865;DHT22;19219;44.500;11.188;2024-03-02T01:23:30;11.40;99.90
32865;DHT22;19219;44.500;11.188;2024-03-02T01:25:56;11.40;99.90
32865;DHT22;19219;44.500;11.188;2024-03-02T01:28:21;11.40;99.90
32865;DHT22;19219;44.500;11.188;2024-03-02T01:30:48;11.50;99.90
32865;DHT22;19219;44.500;11.188;2024-03-02T01:33:13;11.50;99.90
32865;DHT22;19219;44.500;11.188;2024-03-02T01:35:39;11.50;99.90
32865;DHT22;19219;44.500;11.188;2024-03-02T01:38:05;11.50;99.90
32865;DHT22;19219;44.500;11.188;2024-03-02T01:40:37;11.50;99.90
32865;DHT22;19219;44.500;11.188;2024-03-02T01:43:06;11.50;99.90
32865;DHT22;19219;44.500;11.188;2024-03-02T01:45:33;11.50;99.90
32865;DHT22;19219;44.500;11.188;2024-03-02T01:47:59;11.60;99.90
32865;DHT22;19219;44.500;11.188;2024-03-02T01:50:29;11.60;99.90
32865;DHT22;19219;44.500;11.188;2024-03-02T01:52:56;11.50;99.90
32865;DHT22;19219;44.500;11.188;2024-03-02T01:55:22;11.50;99.90
32865;DHT22;19219;44.500;11.188;2024-03-02T01:57:49;11.50;99.90
32865;DHT22;19219;44.500;11.188;2024-03-02T02:00:19;11.50;99.90
32865;DHT22;19219;44.500;11.188;2024-03-02T02:02:46;11.50;99.90
32865;DHT22;19219;44.500;11.188;2024-03-02T02:05:12;11.50;99.90
32865;DHT22;19219;44.500;11.188;2024-03-02T02:07:38;11.50;99.90
32865;DHT22;19219;44.500;11.188;2024-03-02T02:10:04;11.50;99.90
32865;DHT22;19219;44.500;11.188;2024-03-02T02:12:30;11.50;99.90
32865;DHT22;19219;44.500;11.188;2024-03-02T02:14:56;11.50;99.90
32865;DHT22;19219;44.500;11.188;2024-03-02T02:17:21;11.50;99.90
32865;DHT22;19219;44.500;11.188;2024-03-02T02:19:47;11.50;99.90
32865;DHT22;19219;44.500;11.188;2024-03-02T02:22:13;11.50;99.90
32865;DHT22;19219;44.500;11.188;2024-03-02T02:24:41;11.50;99.90
32865;DHT22;19219;44.500;11.188;2024-03-02T02:27:08;11.50;99.90
32865;DHT22;19219;44.500;11.188;2024-03-02T02:29:34;11.40;99.90
32865;DHT22;19219;44.500;11.188;2024-03-02T02:31:59;11.40;99.90
32865;DHT22;19219;44.500;11.188;2024-03-02T02:34:25;11.40;99.90
32865;DHT22;19219;44.500;11.188;2024-03-02T02:36:51;11.40;99.90
32865;DHT22;19219;44.500;11.188;2024-03-02T02:39:19;11.30;99.90
32865;DHT22;19219;44.500;11.188;2024-03-02T02:41:46;11.40;99.90
32865;DHT22;19219;44.500;11.188;2024-03-02T02:44:11;11.40;99.90
32865;DHT22;19219;44.500;11.188;2024-03-02T02:46:38;11.40;99.90
32865;DHT22;19219;44.500;11.188;2024-03-02T02:49:04;11.30;99.90
32865;DHT22;19219;44.500;11.188;2024-03-02T02:51:30;11.30;99.90
32865;DHT22;19219;44.500;11.188;2024-03-02T02:53:56;11.30;99.90
32865;DHT22;19219;44.500;11.188;2024-03-02T02:56:22;11.30;99.90
32865;DHT22;19219;44.500;11.188;2024-03-02T02:58:48;11.30;99.90
32865;DHT22;19219;44.500;11.188;2024-03-02T03:01:14;11.30;99.90
32865;DHT22;19219;44.500;11.188;2024-03-02T03:03:40;11.20;99.90
32865;DHT22;19219;44.500;11.188;2024-03-02T03:06:06;11.30;99.90
32865;DHT22;19219;44.500;11.188;2024-03-02T03:08:32;11.30;99.90
32865;DHT22;19219;44.500;11.188;2024-03-02T03:10:57;11.30;99.90
32865;DHT22;19219;44.500;11.188;2024-03-02T03:13:23;11.30;99.90
32865;DHT22;19219;44.500;11.188;2024-03-02T03:15:49;11.20;99.90
32865;DHT22;19219;44.500;11.188;2024-03-02T03:18:14;11.20;99.90
32865;DHT22;19219;44.500;11.188;2024-03-02T03:20:40;11.20;99.90
32865;DHT22;19219;44.500;11.188;2024-03-02T03:23:06;11.20;99.90
32865;DHT22;19219;44.500;11.188;2024-03-02T03:25:31;11.20;99.90
32865;DHT22;19219;44.500;11.188;2024-03-02T03:27:57;11.20;99.90
32865;DHT22;19219;44.500;11.188;2024-03-02T03:30:23;11.20;99.90
32865;DHT22;19219;44.500;11.188;2024-03-02T03:32:48;11.30;99.90
32865;DHT22;19219;44.500;11.188;2024-03-02T03:35:14;11.20;99.90
32865;DHT22;19219;44.500;11.188;2024-03-02T03:37:44;11.30;99.90
32865;DHT22;19219;44.500;11.188;2024-03-02T03:40:10;11.30;99.90
32865;DHT22;19219;44.500;11.188;2024-03-02T03:42:39;11.30;99.90
32865;DHT22;19219;44.500;11.188;2024-03-02T03:45:05;11.30;99.90
32865;DHT22;19219;44.500;11.188;2024-03-02T03:47:32;11.30;99.90
32865;DHT22;19219;44.500;11.188;2024-03-02T03:49:58;11.40;99.90
32865;DHT22;19219;44.500;11.188;2024-03-02T03:52:24;11.40;99.90
32865;DHT22;19219;44.500;11.188;2024-03-02T03:54:50;11.40;99.90
32865;DHT22;19219;44.500;11.188;2024-03-02T03:57:16;11.40;99.90
32865;DHT22;19219;44.500;11.188;2024-03-02T03:59:42;11.40;99.90
32865;DHT22;19219;44.500;11.188;2024-03-02T04:02:08;11.40;99.90
32865;DHT22;19219;44.500;11.188;2024-03-02T04:04:34;11.30;99.90
32865;DHT22;19219;44.500;11.188;2024-03-02T04:07:00;11.30;99.90
32865;DHT22;19219;44.500;11.188;2024-03-02T04:09:26;11.30;99.90
32865;DHT22;19219;44.500;11.188;2024-03-02T04:11:52;11.30;99.90
32865;DHT22;19219;44.500;11.188;2024-03-02T04:14:17;11.30;99.90
32865;DHT22;19219;44.500;11.188;2024-03-02T04:16:43;11.30;99.90
32865;DHT22;19219;44.500;11.188;2024-03-02T04:19:09;11.50;99.90
32865;DHT22;19219;44.500;11.188;2024-03-02T04:21:34;11.40;99.90
32865;DHT22;19219;44.500;11.188;2024-03-02T04:24:00;11.30;99.90
32865;DHT22;19219;44.500;11.188;2024-03-02T04:26:26;11.40;99.90
32865;DHT22;19219;44.500;11.188;2024-03-02T04:28:52;11.40;99.90
32865;DHT22;19219;44.500;11.188;2024-03-02T04:31:19;11.40;99.90
32865;DHT22;19219;44.500;11.188;2024-03-02T04:33:45;11.40;99.90
32865;DHT22;19219;44.500;11.188;2024-03-02T04:36:10;11.40;99.90
32865;DHT22;19219;44.500;11.188;2024-03-02T04:38:37;11.40;99.90
32865;DHT22;19219;44.500;11.188;2024-03-02T04:41:06;11.40;99.90
32865;DHT22;19219;44.500;11.188;2024-03-02T04:43:33;11.40;99.90
32865;DHT22;19219;44.500;11.188;2024-03-02T04:45:59;11.40;99.90
32865;DHT22;19219;44.500;11.188;2024-03-02T04:48:25;11.40;99.90
32865;DHT22;19219;44.500;11.188;2024-03-02T04:50:51;11.30;99.90
32865;DHT22;19219;44.500;11.188;2024-03-02T04:53:16;11.40;99.90
32865;DHT22;19219;44.500;11.188;2024-03-02T04:55:42;11.40;99.90
32865;DHT22;19219;44.500;11.188;2024-03-02T04:58:07;11.40;99.90
32865;DHT22;19219;44.500;11.188;2024-03-02T05:00:34;11.40;99.90
32865;DHT22;19219;44.500;11.188;2024-03-02T05:03:00;11.40;99.90
32865;DHT22;19219;44.500;11.188;2024-03-02T05:05:25;11.40;99.90
32865;DHT22;19219;44.500;11.188;2024-03-02T05:07:52;11.40;99.90
32865;DHT22;19219;44.500;11.188;2024-03-02T05:10:17;11.30;99.90
32865;DHT22;19219;44.500;11.188;2024-03-02T05:12:43;11.30;99.90
32865;DHT22;19219;44.500;11.188;2024-03-02T05:15:09;11.30;99.90
32865;DHT22;19219;44.500;11.188;2024-03-02T05:17:36;11.30;99.90
32865;DHT22;19219;44.500;11.188;2024-03-02T05:20:05;11.30;99.90
32865;DHT22;19219;44.500;11.188;2024-03-02T05:22:31;11.30;99.90
32865;DHT22;19219;44.500;11.188;2024-03-02T05:24:57;11.30;99.90
32865;DHT22;19219;44.500;11.188;2024-03-02T05:27:24;11.30;99.90
32865;DHT22;19219;44.500;11.188;2024-03-02T05:29:50;11.30;99.90
32865;DHT22;19219;44.500;11.188;2024-03-02T05:32:16;11.30;99.90
32865;DHT22;19219;44.500;11.188;2024-03-02T05:34:41;11.30;99.90
32865;DHT22;19219;44.500;11.188;2024-03-02T05:37:07;11.20;99.90
32865;DHT22;19219;44.500;11.188;2024-03-02T05:39:32;11.20;99.90
32865;DHT22;19219;44.500;11.188;2024-03-02T05:41:58;11.20;99.90
32865;DHT22;19219;44.500;11.188;2024-03-02T05:44:24;11.20;99.90
32865;DHT22;19219;44.500;11.188;2024-03-02T05:46:49;11.30;99.90
32865;DHT22;19219;44.500;11.188;2024-03-02T05:49:15;11.30;99.90
32865;DHT22;19219;44.500;11.188;2024-03-02T05:51:41;11.30;99.90
32865;DHT22;19219;44.500;11.188;2024-03-02T05:54:07;11.30;99.90
32865;DHT22;19219;44.500;11.188;2024-03-02T05:56:32;11.30;99.90
32865;DHT22;19219;44.500;11.188;2024-03-02T05:58:58;11.30;99.90
32865;DHT22;19219;44.500;11.188;2024-03-02T06:01:33;11.30;99.90
32865;DHT22;19219;44.500;11.188;2024-03-02T06:03:59;11.20;99.90
32865;DHT22;19219;44.500;11.188;2024-03-02T06:06:25;11.30;99.90
32865;DHT22;19219;44.500;11.188;2024-03-02T06:08:51;11.30;99.90
32865;DHT22;19219;44.500;11.188;2024-03-02T06:11:17;11.20;99.90
32865;DHT22;19219;44.500;11.188;2024-03-02T06:13:43;11.30;99.90
32865;DHT22;19219;44.500;11.188;2024-03-02T06:16:08;11.30;99.90
32865;DHT22;19219;44.500;11.188;2024-03-02T06:18:34;11.40;99.90
32865;DHT22;19219;44.500;11.188;2024-03-02T06:21:00;11.40;99.90
32865;DHT22;19219;44.500;11.188;2024-03-02T06:23:26;11.40;99.90
32865;DHT22;19219;44.500;11.188;2024-03-02T06:25:52;11.40;99.90
32865;DHT22;19219;44.500;11.188;2024-03-02T06:28:18;11.40;99.90
32865;DHT22;19219;44.500;11.188;2024-03-02T06:30:44;11.40;99.90
32865;DHT22;19219;44.500;11.188;2024-03-02T06:33:10;11.40;99.90
32865;DHT22;19219;44.500;11.188;2024-03-02T06:35:36;11.40;99.90
32865;DHT22;19219;44.500;11.188;2024-03-02T06:38:02;11.50;99.90
32865;DHT22;19219;44.500;11.188;2024-03-02T06:40:28;11.50;99.90
32865;DHT22;19219;44.500;11.188;2024-03-02T06:42:53;11.50;99.90
32865;DHT22;19219;44.500;11.188;2024-03-02T06:45:19;11.50;99.90
32865;DHT22;19219;44.500;11.188;2024-03-02T06:47:45;11.50;99.90
32865;DHT22;19219;44.500;11.188;2024-03-02T06:50:11;11.60;99.90
32865;DHT22;19219;44.500;11.188;2024-03-02T06:52:37;11.60;99.90
32865;DHT22;19219;44.500;11.188;2024-03-02T06:55:03;11.60;99.90
32865;DHT22;19219;44.500;11.188;2024-03-02T06:57:30;11.60;99.90
32865;DHT22;19219;44.500;11.188;2024-03-02T06:59:55;11.50;99.90
32865;DHT22;19219;44.500;11.188;2024-03-02T07:02:24;11.40;99.90
32865;DHT22;19219;44.500;11.188;2024-03-02T07:04:52;11.40;99.90
32865;DHT22;19219;44.500;11.188;2024-03-02T07:07:18;11.50;99.90
32865;DHT22;19219;44.500;11.188;2024-03-02T07:09:44;11.50;99.90
32865;DHT22;19219;44.500;11.188;2024-03-02T07:12:09;11.50;99.90
32865;DHT22;19219;44.500;11.188;2024-03-02T07:14:35;11.50;99.90
32865;DHT22;19219;44.500;11.188;2024-03-02T07:17:22;11.50;99.90
32865;DHT22;19219;44.500;11.188;2024-03-02T07:19:48;11.50;99.90
32865;DHT22;19219;44.500;11.188;2024-03-02T07:22:14;11.50;99.90
32865;DHT22;19219;44.500;11.188;2024-03-02T07:24:43;11.50;99.90
32865;DHT22;19219;44.500;11.188;2024-03-02T07:27:09;11.60;99.90
32865;DHT22;19219;44.500;11.188;2024-03-02T07:29:36;11.60;99.90
32865;DHT22;19219;44.500;11.188;2024-03-02T07:32:01;11.60;99.90
32865;DHT22;19219;44.500;11.188;2024-03-02T07:34:27;11.60;99.90
32865;DHT22;19219;44.500;11.188;2024-03-02T07:36:53;11.70;99.90
32865;DHT22;19219;44.500;11.188;2024-03-02T07:39:19;11.70;99.90
32865;DHT22;19219;44.500;11.188;2024-03-02T07:41:46;11.80;99.90
32865;DHT22;19219;44.500;11.188;2024-03-02T07:44:12;11.80;99.90
32865;DHT22;19219;44.500;11.188;2024-03-02T07:46:43;11.80;99.90
32865;DHT22;19219;44.500;11.188;2024-03-02T07:49:09;11.80;99.90
32865;DHT22;19219;44.500;11.188;2024-03-02T07:51:35;11.90;99.90
32865;DHT22;19219;44.500;11.188;2024-03-02T07:54:01;12.00;99.90
32865;DHT22;19219;44.500;11.188;2024-03-02T07:56:27;12.00;99.90
32865;DHT22;19219;44.500;11.188;2024-03-02T07:58:53;12.00;99.90
32865;DHT22;19219;44.500;11.188;2024-03-02T08:01:19;12.00;99.90
32865;DHT22;19219;44.500;11.188;2024-03-02T08:03:45;12.00;99.90
32865;DHT22;19219;44.500;11.188;2024-03-02T08:06:16;12.00;99.90
32865;DHT22;19219;44.500;11.188;2024-03-02T08:08:42;11.90;99.90
32865;DHT22;19219;44.500;11.188;2024-03-02T08:11:08;12.00;99.90
32865;DHT22;19219;44.500;11.188;2024-03-02T08:13:34;12.10;99.90
32865;DHT22;19219;44.500;11.188;2024-03-02T08:16:00;12.10;99.90
32865;DHT22;19219;44.500;11.188;2024-03-02T08:18:28;12.10;99.90
32865;DHT22;19219;44.500;11.188;2024-03-02T08:20:54;12.10;99.90
32865;DHT22;19219;44.500;11.188;2024-03-02T08:23:21;12.10;99.90
32865;DHT22;19219;44.500;11.188;2024-03-02T08:25:47;12.10;99.90
32865;DHT22;19219;44.500;11.188;2024-03-02T08:28:12;12.20;99.90
32865;DHT22;19219;44.500;11.188;2024-03-02T08:30:38;12.20;99.90
32865;DHT22;19219;44.500;11.188;2024-03-02T08:33:04;12.30;99.90
32865;DHT22;19219;44.500;11.188;2024-03-02T08:35:31;12.30;99.90
32865;DHT22;19219;44.500;11.188;2024-03-02T08:38:01;12.30;99.90
32865;DHT22;19219;44.500;11.188;2024-03-02T08:40:27;12.30;99.90
32865;DHT22;19219;44.500;11.188;2024-03-02T08:42:53;12.40;99.90
32865;DHT22;19219;44.500;11.188;2024-03-02T08:45:19;12.50;99.90
32865;DHT22;19219;44.500;11.188;2024-03-02T08:47:46;12.50;99.90
32865;DHT22;19219;44.500;11.188;2024-03-02T08:50:12;12.50;99.90
32865;DHT22;19219;44.500;11.188;2024-03-02T08:52:37;12.50;99.90
32865;DHT22;19219;44.500;11.188;2024-03-02T08:55:03;12.60;99.90
32865;DHT22;19219;44.500;11.188;2024-03-02T08:57:30;12.70;99.90
32865;DHT22;19219;44.500;11.188;2024-03-02T08:59:56;12.80;99.90
32865;DHT22;19219;44.500;11.188;2024-03-02T09:02:22;12.80;99.90
32865;DHT22;19219;44.500;11.188;2024-03-02T09:04:47;12.90;99.90
32865;DHT22;19219;44.500;11.188;2024-03-02T09:07:14;13.00;99.90
32865;DHT22;19219;44.500;11.188;2024-03-02T09:09:40;13.10;99.90
32865;DHT22;19219;44.500;11.188;2024-03-02T09:12:06;13.00;99.90
32865;DHT22;19219;44.500;11.188;2024-03-02T09:14:32;13.10;99.90
32865;DHT22;19219;44.500;11.188;2024-03-02T09:16:58;13.10;99.90
32865;DHT22;19219;44.500;11.188;2024-03-02T09:19:23;13.10;99.90
32865;DHT22;19219;44.500;11.188;2024-03-02T09:21:49;13.10;99.90
32865;DHT22;19219;44.500;11.188;2024-03-02T09:24:16;13.10;99.90
32865;DHT22;19219;44.500;11.188;2024-03-02T09:26:41;13.00;99.90
32865;DHT22;19219;44.500;11.188;2024-03-02T09:29:07;13.10;99.90
32865;DHT22;19219;44.500;11.188;2024-03-02T09:31:33;13.20;99.90
32865;DHT22;19219;44.500;11.188;2024-03-02T09:33:58;13.30;99.90
32865;DHT22;19219;44.500;11.188;2024-03-02T09:36:24;13.40;99.90
32865;DHT22;19219;44.500;11.188;2024-03-02T09:38:49;13.50;99.90
32865;DHT22;19219;44.500;11.188;2024-03-02T09:41:15;13.70;99.90
32865;DHT22;19219;44.500;11.188;2024-03-02T09:43:41;13.80;99.90
32865;DHT22;19219;44.500;11.188;2024-03-02T09:46:10;14.10;99.90
32865;DHT22;19219;44.500;11.188;2024-03-02T09:48:37;14.30;99.90
32865;DHT22;19219;44.500;11.188;2024-03-02T09:51:04;14.30;99.90
32865;DHT22;19219;44.500;11.188;2024-03-02T09:53:32;14.60;99.90
32865;DHT22;19219;44.500;11.188;2024-03-02T09:55:59;14.80;99.90
32865;DHT22;19219;44.500;11.188;2024-03-02T09:58:25;15.00;99.90
32865;DHT22;19219;44.500;11.188;2024-03-02T10:00:51;15.10;99.90
32865;DHT22;19219;44.500;11.188;2024-03-02T10:03:18;15.10;99.90
32865;DHT22;19219;44.500;11.188;2024-03-02T10:05:44;14.80;99.90
32865;DHT22;19219;44.500;11.188;2024-03-02T10:08:10;14.60;99.90
32865;DHT22;19219;44.500;11.188;2024-03-02T10:10:37;14.50;99.90
32865;DHT22;19219;44.500;11.188;2024-03-02T10:13:08;14.50;99.90
32865;DHT22;19219;44.500;11.188;2024-03-02T10:15:35;14.70;99.90
32865;DHT22;19219;44.500;11.188;2024-03-02T10:18:00;14.80;99.90
32865;DHT22;19219;44.500;11.188;2024-03-02T10:20:27;15.00;99.90
32865;DHT22;19219;44.500;11.188;2024-03-02T10:23:18;15.10;99.90
32865;DHT22;19219;44.500;11.188;2024-03-02T10:25:44;15.20;99.90
32865;DHT22;19219;44.500;11.188;2024-03-02T10:28:10;15.30;99.90
32865;DHT22;19219;44.500;11.188;2024-03-02T10:30:36;15.30;99.90
32865;DHT22;19219;44.500;11.188;2024-03-02T10:33:02;15.30;99.90
32865;DHT22;19219;44.500;11.188;2024-03-02T10:35:28;15.20;99.90
32865;DHT22;19219;44.500;11.188;2024-03-02T10:37:59;15.30;99.90
32865;DHT22;19219;44.500;11.188;2024-03-02T10:40:26;15.30;99.90
32865;DHT22;19219;44.500;11.188;2024-03-02T10:42:52;15.40;99.90
32865;DHT22;19219;44.500;11.188;2024-03-02T10:45:20;15.30;99.90
32865;DHT22;19219;44.500;11.188;2024-03-02T10:47:48;15.10;99.90
32865;DHT22;19219;44.500;11.188;2024-03-02T10:50:14;15.00;99.90
32865;DHT22;19219;44.500;11.188;2024-03-02T10:52:40;14.80;99.90
32865;DHT22;19219;44.500;11.188;2024-03-02T10:55:06;14.60;99.90
32865;DHT22;19219;44.500;11.188;2024-03-02T10:58:06;14.50;99.90
32865;DHT22;19219;44.500;11.188;2024-03-02T11:00:37;14.40;99.90
32865;DHT22;19219;44.500;11.188;2024-03-02T11:03:07;14.40;99.90
32865;DHT22;19219;44.500;11.188;2024-03-02T11:05:40;14.40;99.90
32865;DHT22;19219;44.500;11.188;2024-03-02T11:08:12;14.50;99.90
32865;DHT22;19219;44.500;11.188;2024-03-02T11:10:51;14.70;99.90
32865;DHT22;19219;44.500;11.188;2024-03-02T11:13:33;14.70;99.90
32865;DHT22;19219;44.500;11.188;2024-03-02T11:16:19;14.70;99.90
32865;DHT22;19219;44.500;11.188;2024-03-02T11:18:50;14.80;99.90
32865;DHT22;19219;44.500;11.188;2024-03-02T11:21:16;14.70;99.90
32865;DHT22;19219;44.500;11.188;2024-03-02T11:23:42;14.90;99.90
32865;DHT22;19219;44.500;11.188;2024-03-02T11:26:21;15.10;99.90
32865;DHT22;19219;44.500;11.188;2024-03-02T11:28:47;15.10;99.90
32865;DHT22;19219;44.500;11.188;2024-03-02T11:31:13;15.30;99.90
32865;DHT22;19219;44.500;11.188;2024-03-02T11:33:39;15.20;99.90
32865;DHT22;19219;44.500;11.188;2024-03-02T11:36:06;15.20;99.90
32865;DHT22;19219;44.500;11.188;2024-03-02T11:38:33;15.30;99.90
32865;DHT22;19219;44.500;11.188;2024-03-02T11:41:00;15.20;99.90
32865;DHT22;19219;44.500;11.188;2024-03-02T11:43:30;15.10;99.90
32865;DHT22;19219;44.500;11.188;2024-03-02T11:46:02;15.10;99.90
32865;DHT22;19219;44.500;11.188;2024-03-02T11:48:29;15.00;99.90
32865;DHT22;19219;44.500;11.188;2024-03-02T11:50:58;14.90;99.90
32865;DHT22;19219;44.500;11.188;2024-03-02T11:53:27;14.90;99.90
32865;DHT22;19219;44.500;11.188;2024-03-02T11:55:55;14.90;99.90
32865;DHT22;19219;44.500;11.188;2024-03-02T11:58:21;14.80;99.90
32865;DHT22;19219;44.500;11.188;2024-03-02T12:00:55;14.80;99.90
32865;DHT22;19219;44.500;11.188;2024-03-02T12:03:25;14.60;99.90
32865;DHT22;19219;44.500;11.188;2024-03-02T12:05:53;14.60;99.90
32865;DHT22;19219;44.500;11.188;2024-03-02T12:08:19;14.60;99.90
32865;DHT22;19219;44.500;11.188;2024-03-02T12:10:57;14.70;99.90
32865;DHT22;19219;44.500;11.188;2024-03-02T12:13:24;14.70;99.90
32865;DHT22;19219;44.500;11.188;2024-03-02T12:15:53;14.60;99.90
32865;DHT22;19219;44.500;11.188;2024-03-02T12:18:20;14.50;99.90
32865;DHT22;19219;44.500;11.188;2024-03-02T12:20:46;14.60;99.90
32865;DHT22;19219;44.500;11.188;2024-03-02T12:23:14;14.60;99.90
32865;DHT22;19219;44.500;11.188;2024-03-02T12:25:40;14.60;99.90
32865;DHT22;19219;44.500;11.188;2024-03-02T12:28:06;14.70;99.90
32865;DHT22;19219;44.500;11.188;2024-03-02T12:30:35;14.80;99.90
32865;DHT22;19219;44.500;11.188;2024-03-02T12:33:01;14.80;99.90
32865;DHT22;19219;44.500;11.188;2024-03-02T12:35:26;14.70;99.90
32865;DHT22;19219;44.500;11.188;2024-03-02T12:37:53;14.60;99.90
32865;DHT22;19219;44.500;11.188;2024-03-02T12:40:20;14.50;99.90
32865;DHT22;19219;44.500;11.188;2024-03-02T12:42:48;14.50;99.90
32865;DHT22;19219;44.500;11.188;2024-03-02T12:45:15;14.40;99.90
32865;DHT22;19219;44.500;11.188;2024-03-02T12:47:42;14.40;99.90
32865;DHT22;19219;44.500;11.188;2024-03-02T12:50:09;14.50;99.90
32865;DHT22;19219;44.500;11.188;2024-03-02T12:52:35;14.60;99.90
32865;DHT22;19219;44.500;11.188;2024-03-02T12:55:02;14.80;99.90
32865;DHT22;19219;44.500;11.188;2024-03-02T12:57:30;15.10;99.90
32865;DHT22;19219;44.500;11.188;2024-03-02T13:00:06;15.40;99.90
32865;DHT22;19219;44.500;11.188;2024-03-02T13:02:36;15.40;99.90
32865;DHT22;19219;44.500;11.188;2024-03-02T13:05:02;15.50;99.90
32865;DHT22;19219;44.500;11.188;2024-03-02T13:07:29;15.50;99.90
32865;DHT22;19219;44.500;11.188;2024-03-02T13:09:55;15.70;99.90
32865;DHT22;19219;44.500;11.188;2024-03-02T13:12:22;16.00;99.90
32865;DHT22;19219;44.500;11.188;2024-03-02T13:14:52;16.00;99.90
32865;DHT22;19219;44.500;11.188;2024-03-02T13:17:19;15.80;99.90
32865;DHT22;19219;44.500;11.188;2024-03-02T13:19:58;15.80;99.90
32865;DHT22;19219;44.500;11.188;2024-03-02T13:22:24;15.80;99.90
32865;DHT22;19219;44.500;11.188;2024-03-02T13:24:51;15.80;99.90
32865;DHT22;19219;44.500;11.188;2024-03-02T13:27:17;15.80;99.90
32865;DHT22;19219;44.500;11.188;2024-03-02T13:29:47;16.00;99.90
32865;DHT22;19219;44.500;11.188;2024-03-02T13:32:14;16.00;99.90
32865;DHT22;19219;44.500;11.188;2024-03-02T13:34:40;16.00;99.90
32865;DHT22;19219;44.500;11.188;2024-03-02T13:37:05;16.00;99.90
32865;DHT22;19219;44.500;11.188;2024-03-02T13:39:31;16.10;99.90
32865;DHT22;19219;44.500;11.188;2024-03-02T13:41:58;16.20;99.90
32865;DHT22;19219;44.500;11.188;2024-03-02T13:44:31;16.40;99.90
32865;DHT22;19219;44.500;11.188;2024-03-02T13:46:57;16.50;99.90
32865;DHT22;19219;44.500;11.188;2024-03-02T13:49:23;16.60;99.90
32865;DHT22;19219;44.500;11.188;2024-03-02T13:51:49;16.70;99.90
32865;DHT22;19219;44.500;11.188;2024-03-02T13:54:15;16.60;99.90
32865;DHT22;19219;44.500;11.188;2024-03-02T13:56:41;16.50;99.90
32865;DHT22;19219;44.500;11.188;2024-03-02T13:59:07;16.50;99.90
32865;DHT22;19219;44.500;11.188;2024-03-02T14:01:33;16.40;99.90
32865;DHT22;19219;44.500;11.188;2024-03-02T14:03:59;16.30;99.90
32865;DHT22;19219;44.500;11.188;2024-03-02T14:06:26;16.20;99.90
32865;DHT22;19219;44.500;11.188;2024-03-02T14:08:52;16.10;99.90
32865;DHT22;19219;44.500;11.188;2024-03-02T14:11:18;16.00;99.90
32865;DHT22;19219;44.500;11.188;2024-03-02T14:13:44;15.90;99.90
32865;DHT22;19219;44.500;11.188;2024-03-02T14:16:15;15.80;99.90
32865;DHT22;19219;44.500;11.188;2024-03-02T14:18:41;15.70;99.90
32865;DHT22;19219;44.500;11.188;2024-03-02T14:21:07;15.60;99.90
32865;DHT22;19219;44.500;11.188;2024-03-02T14:23:33;15.70;99.90
32865;DHT22;19219;44.500;11.188;2024-03-02T14:25:58;15.90;99.90
32865;DHT22;19219;44.500;11.188;2024-03-02T14:28:25;16.10;99.90
32865;DHT22;19219;44.500;11.188;2024-03-02T14:30:50;16.10;99.90
32865;DHT22;19219;44.500;11.188;2024-03-02T14:33:16;16.10;99.90
32865;DHT22;19219;44.500;11.188;2024-03-02T14:35:42;16.00;99.90
32865;DHT22;19219;44.500;11.188;2024-03-02T14:38:08;15.90;99.90
32865;DHT22;19219;44.500;11.188;2024-03-02T14:40:34;15.80;99.90
32865;DHT22;19219;44.500;11.188;2024-03-02T14:42:59;15.70;99.90
32865;DHT22;19219;44.500;11.188;2024-03-02T14:45:25;15.70;99.90
32865;DHT22;19219;44.500;11.188;2024-03-02T14:47:52;15.60;99.90
32865;DHT22;19219;44.500;11.188;2024-03-02T14:50:18;15.50;99.90
32865;DHT22;19219;44.500;11.188;2024-03-02T14:52:46;15.50;99.90
32865;DHT22;19219;44.500;11.188;2024-03-02T14:55:12;15.50;99.90
32865;DHT22;19219;44.500;11.188;2024-03-02T14:57:38;15.40;99.90
32865;DHT22;19219;44.500;11.188;2024-03-02T15:00:04;15.40;99.90
32865;DHT22;19219;44.500;11.188;2024-03-02T15:02:33;15.40;99.90
32865;DHT22;19219;44.500;11.188;2024-03-02T15:04:59;15.50;99.90
32865;DHT22;19219;44.500;11.188;2024-03-02T15:07:25;15.50;99.90
32865;DHT22;19219;44.500;11.188;2024-03-02T15:09:51;15.50;99.90
32865;DHT22;19219;44.500;11.188;2024-03-02T15:12:17;15.70;99.90
32865;DHT22;19219;44.500;11.188;2024-03-02T15:14:43;15.60;99.90